Time;durP1;ratioP1;P1;durP2;ratioP2;P2;SDS_P1;SDS_P2;PMS_P1;PMS_P2;Temp;Humidity;BMP_temperature;BMP_pressure;BME280_temperature;BME280_humidity;BME280_pressure;Samples;Min_cycle;Max_cycle;Signal;HPM_P1;HPM_P2
2020/12/28 00:00:48;;;;;;;10.20;6.38;;;2.40;66.70;;;;;;4990154;28;20073;-66
2020/12/28 00:03:14;;;;;;;11.32;6.78;;;2.50;66.90;;;;;;4980510;28;20039;-68
2020/12/28 00:05:39;;;;;;;12.02;6.80;;;2.50;66.80;;;;;;4980132;28;20122;-68
2020/12/28 00:08:05;;;;;;;11.77;7.03;;;2.50;66.70;;;;;;4980320;28;20038;-68
2020/12/28 00:10:31;;;;;;;12.38;6.70;;;2.50;66.70;;;;;;4977312;28;20049;-68
2020/12/28 00:12:56;;;;;;;11.85;6.82;;;2.40;66.60;;;;;;4980636;28;20031;-68
2020/12/28 00:15:28;;;;;;;12.05;6.28;;;2.40;66.60;;;;;;4980772;28;20038;-68
2020/12/28 00:17:59;;;;;;;10.85;6.65;;;2.40;66.70;;;;;;4980384;28;20085;-66
2020/12/28 00:20:30;;;;;;;10.82;6.68;;;2.30;66.90;;;;;;4980746;28;20030;-66
2020/12/28 00:22:56;;;;;;;12.43;6.47;;;2.30;67.10;;;;;;4980619;28;20042;-67
2020/12/28 00:25:23;;;;;;;10.48;6.85;;;2.40;67.10;;;;;;4979564;28;20044;-67
2020/12/28 00:27:49;;;;;;;9.75;6.43;;;2.40;67.20;;;;;;4979789;28;20042;-67
2020/12/28 00:30:15;;;;;;;10.55;6.45;;;2.40;68.00;;;;;;4985161;28;20402;-67
2020/12/28 00:32:41;;;;;;;10.90;7.30;;;2.40;67.10;;;;;;4978606;28;20030;-66
2020/12/28 00:35:08;;;;;;;12.10;6.70;;;2.40;67.00;;;;;;4979438;28;20077;-67
2020/12/28 00:37:34;;;;;;;10.40;6.43;;;2.30;67.00;;;;;;4978232;28;20031;-67
2020/12/28 00:40:01;;;;;;;10.45;6.50;;;2.30;67.20;;;;;;4979523;28;20046;-66
2020/12/28 00:42:29;;;;;;;11.85;6.75;;;2.30;67.20;;;;;;4978022;28;20030;-67
2020/12/28 00:44:57;;;;;;;10.00;6.30;;;2.30;67.20;;;;;;4979860;28;20026;-67
2020/12/28 00:47:23;;;;;;;12.68;7.53;;;2.30;67.30;;;;;;4979055;28;20433;-67
2020/12/28 00:49:48;;;;;;;11.95;6.95;;;2.30;67.30;;;;;;4978154;28;20036;-67
2020/12/28 00:52:14;;;;;;;11.93;6.68;;;2.30;67.30;;;;;;4979197;28;20030;-66
2020/12/28 00:54:39;;;;;;;10.60;5.90;;;2.30;67.20;;;;;;4979231;28;20050;-66
2020/12/28 00:57:05;;;;;;;10.73;5.45;;;2.30;67.30;;;;;;4979725;28;20042;-67
2020/12/28 00:59:31;;;;;;;10.13;6.03;;;2.30;67.30;;;;;;4978388;28;20086;-67
2020/12/28 01:01:58;;;;;;;11.10;6.95;;;2.40;67.30;;;;;;4979534;28;20421;-66
2020/12/28 01:04:24;;;;;;;11.05;6.70;;;2.40;67.30;;;;;;4976751;28;20026;-67
2020/12/28 01:06:50;;;;;;;12.68;6.90;;;2.40;67.30;;;;;;4977616;28;20127;-67
2020/12/28 01:09:16;;;;;;;9.32;5.72;;;2.40;67.20;;;;;;4982284;28;20118;-67
2020/12/28 01:11:42;;;;;;;10.45;6.05;;;2.40;67.20;;;;;;4980950;28;20034;-66
2020/12/28 01:14:09;;;;;;;8.82;5.50;;;2.30;67.20;;;;;;4979729;28;20037;-67
2020/12/28 01:16:35;;;;;;;9.18;5.70;;;2.30;67.40;;;;;;4977147;28;20037;-66
2020/12/28 01:19:01;;;;;;;9.07;5.57;;;2.40;67.50;;;;;;4977175;28;20035;-66
2020/12/28 01:21:27;;;;;;;10.48;5.72;;;2.40;67.70;;;;;;4978946;28;20110;-66
2020/12/28 01:23:52;;;;;;;9.20;5.63;;;2.40;67.70;;;;;;4979127;28;20034;-67
2020/12/28 01:26:18;;;;;;;12.45;6.75;;;2.40;67.50;;;;;;4978640;28;20026;-66
2020/12/28 01:28:44;;;;;;;10.65;6.35;;;2.40;67.60;;;;;;4978454;28;20458;-66
2020/12/28 01:31:10;;;;;;;7.95;5.28;;;2.40;67.50;;;;;;4978759;28;20042;-67
2020/12/28 01:33:36;;;;;;;9.75;5.47;;;2.40;67.50;;;;;;4978393;28;20030;-67
2020/12/28 01:36:03;;;;;;;10.35;5.50;;;2.40;67.50;;;;;;4979824;28;20049;-66
2020/12/28 01:38:28;;;;;;;8.63;4.88;;;2.40;67.40;;;;;;4978341;28;20042;-66
2020/12/28 01:40:55;;;;;;;7.80;4.80;;;2.40;67.30;;;;;;4982364;28;20027;-66
2020/12/28 01:43:20;;;;;;;7.70;5.00;;;2.50;67.30;;;;;;4982888;28;20031;-67
2020/12/28 01:45:46;;;;;;;9.93;5.40;;;2.50;67.30;;;;;;4981023;28;20089;-67
2020/12/28 01:48:12;;;;;;;8.18;4.90;;;2.40;67.30;;;;;;4987376;28;20027;-66
2020/12/28 01:50:37;;;;;;;7.97;5.32;;;2.40;67.30;;;;;;4981068;28;20042;-66
2020/12/28 01:53:04;;;;;;;7.22;5.07;;;2.40;67.50;;;;;;4982742;28;20034;-67
2020/12/28 01:55:31;;;;;;;7.13;4.60;;;2.40;67.50;;;;;;4982900;28;20494;-67
2020/12/28 01:57:57;;;;;;;7.03;4.80;;;2.40;67.50;;;;;;4982165;28;20049;-66
2020/12/28 02:00:22;;;;;;;9.43;5.20;;;2.40;67.50;;;;;;4983607;28;20217;-66
2020/12/28 02:02:49;;;;;;;7.55;4.60;;;2.40;67.50;;;;;;4981691;28;20063;-66
2020/12/28 02:05:15;;;;;;;7.13;4.80;;;2.30;67.30;;;;;;4982339;28;20502;-67
2020/12/28 02:07:41;;;;;;;6.60;4.35;;;2.30;67.50;;;;;;4981643;28;20039;-66
2020/12/28 02:10:10;;;;;;;7.88;4.60;;;2.30;67.50;;;;;;4981384;28;20050;-66
2020/12/28 02:12:37;;;;;;;6.88;3.95;;;2.30;67.70;;;;;;4980587;28;20066;-66
2020/12/28 02:15:06;;;;;;;4.80;3.35;;;2.40;67.80;;;;;;4982617;28;20114;-66
2020/12/28 02:17:32;;;;;;;4.75;3.08;;;2.40;67.60;;;;;;4982089;28;20035;-66
2020/12/28 02:19:58;;;;;;;5.55;3.58;;;2.40;67.60;;;;;;4981050;28;20045;-66
2020/12/28 02:22:24;;;;;;;4.68;3.45;;;2.40;67.50;;;;;;4982092;28;20113;-67
2020/12/28 02:24:49;;;;;;;7.20;3.53;;;2.40;67.50;;;;;;4980810;28;20502;-65
2020/12/28 02:27:15;;;;;;;5.22;3.35;;;2.50;67.70;;;;;;4982249;28;20041;-68
2020/12/28 02:29:41;;;;;;;5.28;3.05;;;2.50;67.80;;;;;;4980152;28;20042;-66
2020/12/28 02:32:06;;;;;;;5.80;3.40;;;2.50;67.70;;;;;;4981872;28;20048;-67
2020/12/28 02:34:32;;;;;;;7.70;4.07;;;2.50;67.70;;;;;;4981556;28;20041;-67
2020/12/28 02:36:57;;;;;;;6.15;4.00;;;2.50;67.60;;;;;;4981309;28;20038;-67
2020/12/28 02:39:23;;;;;;;4.55;3.83;;;2.60;67.50;;;;;;4981473;28;20061;-67
2020/12/28 02:41:49;;;;;;;4.97;3.75;;;2.50;67.40;;;;;;4983221;28;20121;-67
2020/12/28 02:44:14;;;;;;;6.20;3.83;;;2.50;67.20;;;;;;4982201;28;20039;-67
2020/12/28 02:46:40;;;;;;;4.88;3.60;;;2.50;67.30;;;;;;4980808;28;20085;-67
2020/12/28 02:49:05;;;;;;;5.70;3.65;;;2.50;67.40;;;;;;4982587;28;20121;-65
2020/12/28 02:51:31;;;;;;;5.15;3.50;;;2.50;67.40;;;;;;4980684;28;20043;-67
2020/12/28 02:53:57;;;;;;;5.25;3.78;;;2.50;67.50;;;;;;4981348;28;20035;-67
2020/12/28 02:56:22;;;;;;;5.25;3.65;;;2.50;67.50;;;;;;4980714;28;20062;-67
2020/12/28 02:58:48;;;;;;;4.93;3.53;;;2.50;67.60;;;;;;4979853;28;20433;-66
2020/12/28 03:01:14;;;;;;;6.18;3.80;;;2.50;67.70;;;;;;4980945;28;20035;-67
2020/12/28 03:03:39;;;;;;;8.55;4.60;;;2.50;67.90;;;;;;4980805;28;20537;-67
2020/12/28 03:06:05;;;;;;;11.88;6.57;;;2.50;68.00;;;;;;4981163;28;20038;-67
2020/12/28 03:08:30;;;;;;;10.10;6.53;;;2.50;68.10;;;;;;4979047;28;20473;-67
2020/12/28 03:10:56;;;;;;;13.20;7.60;;;2.50;68.30;;;;;;4980555;28;20041;-67
2020/12/28 03:13:22;;;;;;;13.00;7.88;;;2.50;68.40;;;;;;4979069;28;20490;-66
2020/12/28 03:15:47;;;;;;;12.10;8.38;;;2.40;68.50;;;;;;4979162;28;20066;-67
2020/12/28 03:18:13;;;;;;;14.63;8.43;;;2.40;68.70;;;;;;4981213;28;20026;-67
2020/12/28 03:20:38;;;;;;;12.07;7.75;;;2.30;68.90;;;;;;4980771;28;20126;-67
2020/12/28 03:23:04;;;;;;;12.82;8.00;;;2.20;69.10;;;;;;4981248;28;20038;-66
2020/12/28 03:25:30;;;;;;;16.38;8.15;;;2.20;69.30;;;;;;4978783;28;20058;-67
2020/12/28 03:27:55;;;;;;;12.98;8.00;;;2.10;69.40;;;;;;4980612;28;20030;-67
2020/12/28 03:30:21;;;;;;;12.65;8.30;;;2.10;69.40;;;;;;4979161;28;20042;-67
2020/12/28 03:32:46;;;;;;;13.82;7.97;;;2.00;69.60;;;;;;4980183;28;20045;-67
2020/12/28 03:35:12;;;;;;;13.98;8.05;;;2.00;69.80;;;;;;4980055;28;20027;-67
2020/12/28 03:37:38;;;;;;;13.13;7.68;;;2.00;69.80;;;;;;4980531;28;20031;-67
2020/12/28 03:40:04;;;;;;;12.10;7.38;;;2.00;69.80;;;;;;4980651;28;20042;-68
2020/12/28 03:42:29;;;;;;;12.50;6.85;;;2.00;70.00;;;;;;4980237;28;20038;-67
2020/12/28 03:44:55;;;;;;;12.07;7.00;;;1.90;70.00;;;;;;4980025;28;20403;-67
2020/12/28 03:47:21;;;;;;;11.38;7.10;;;1.90;70.10;;;;;;4978958;28;20031;-67
2020/12/28 03:49:46;;;;;;;11.82;7.72;;;2.00;70.20;;;;;;4979392;28;20053;-67
2020/12/28 03:52:13;;;;;;;11.27;7.28;;;1.90;70.20;;;;;;4980790;28;20410;-67
2020/12/28 03:54:39;;;;;;;11.00;6.97;;;1.90;70.20;;;;;;4980372;28;20035;-67
2020/12/28 03:57:05;;;;;;;9.18;5.95;;;1.90;70.30;;;;;;4981005;28;20061;-67
2020/12/28 03:59:30;;;;;;;9.35;6.65;;;1.90;70.40;;;;;;4980071;28;20080;-67
2020/12/28 04:01:56;;;;;;;11.10;6.65;;;1.90;70.40;;;;;;4979919;28;20122;-67
2020/12/28 04:04:21;;;;;;;11.73;7.20;;;1.90;70.40;;;;;;4977962;28;20030;-67
2020/12/28 04:06:47;;;;;;;11.73;7.18;;;1.90;70.50;;;;;;4980043;28;20041;-67
2020/12/28 04:09:13;;;;;;;13.45;7.18;;;1.90;70.60;;;;;;4993200;28;20031;-67
2020/12/28 04:11:38;;;;;;;12.18;7.10;;;1.80;70.60;;;;;;4979848;28;20034;-67
2020/12/28 04:14:04;;;;;;;11.70;6.95;;;1.80;70.60;;;;;;4978806;28;20286;-67
2020/12/28 04:16:29;;;;;;;10.15;6.78;;;1.80;70.60;;;;;;4979984;28;20041;-67
2020/12/28 04:18:55;;;;;;;10.43;6.93;;;1.80;70.70;;;;;;4980252;28;20038;-67
2020/12/28 04:21:21;;;;;;;12.68;7.05;;;1.90;70.80;;;;;;4978914;28;20043;-67
2020/12/28 04:23:46;;;;;;;11.38;7.38;;;1.90;70.80;;;;;;4979687;28;20034;-67
2020/12/28 04:26:12;;;;;;;10.82;6.75;;;1.90;70.90;;;;;;4980258;28;20027;-67
2020/12/28 04:28:37;;;;;;;10.98;6.55;;;1.90;70.90;;;;;;4978622;28;20585;-67
2020/12/28 04:31:03;;;;;;;12.32;6.70;;;1.90;70.80;;;;;;4978007;28;20050;-67
2020/12/28 04:33:29;;;;;;;11.23;6.82;;;1.90;70.80;;;;;;4977938;28;20542;-67
2020/12/28 04:35:54;;;;;;;9.23;6.65;;;1.80;70.80;;;;;;4979210;28;20034;-67
2020/12/28 04:38:21;;;;;;;12.65;7.05;;;1.80;71.70;;;;;;4978564;28;20543;-67
2020/12/28 04:40:46;;;;;;;11.27;6.68;;;1.80;71.80;;;;;;4977573;28;20043;-67
2020/12/28 04:43:13;;;;;;;12.25;7.03;;;1.80;71.20;;;;;;4979536;28;20116;-67
2020/12/28 04:45:40;;;;;;;9.48;6.03;;;1.80;71.50;;;;;;4979621;28;20027;-67
2020/12/28 04:48:07;;;;;;;8.80;6.10;;;1.80;71.50;;;;;;4979972;28;20034;-67
2020/12/28 04:50:34;;;;;;;10.07;6.80;;;1.80;71.60;;;;;;4978084;28;20493;-67
2020/12/28 04:53:02;;;;;;;9.60;6.68;;;1.80;72.40;;;;;;4979803;28;20039;-67
2020/12/28 04:55:27;;;;;;;10.15;5.95;;;1.80;72.40;;;;;;4979490;28;20074;-67
2020/12/28 04:57:53;;;;;;;9.45;6.55;;;1.80;71.70;;;;;;4978433;28;20034;-67
2020/12/28 05:00:18;;;;;;;8.90;6.22;;;1.90;71.70;;;;;;4979080;28;20039;-67
2020/12/28 05:02:46;;;;;;;13.85;7.25;;;1.90;71.90;;;;;;4976553;28;20464;-67
2020/12/28 05:05:11;;;;;;;9.73;6.40;;;1.90;71.80;;;;;;4978321;28;20045;-66
2020/12/28 05:07:37;;;;;;;9.35;6.22;;;1.90;71.90;;;;;;4979653;28;20030;-67
2020/12/28 05:10:04;;;;;;;10.10;5.90;;;1.90;71.90;;;;;;4979037;28;20121;-67
2020/12/28 05:12:30;;;;;;;13.48;7.90;;;1.90;72.00;;;;;;4976617;28;20034;-67
2020/12/28 05:15:08;;;;;;;12.70;6.05;;;1.90;72.20;;;;;;4981648;28;20380;-67
2020/12/28 05:17:34;;;;;;;10.02;6.43;;;1.90;72.60;;;;;;4982938;28;20031;-67
2020/12/28 05:20:01;;;;;;;9.75;6.22;;;1.90;72.70;;;;;;4982034;28;20399;-67
2020/12/28 05:22:28;;;;;;;9.38;5.63;;;1.90;72.90;;;;;;4982483;28;20038;-67
2020/12/28 05:24:55;;;;;;;7.75;5.13;;;1.90;73.10;;;;;;4980660;28;20043;-66
2020/12/28 05:27:22;;;;;;;8.88;5.75;;;1.90;73.40;;;;;;4983423;28;20126;-67
2020/12/28 05:29:49;;;;;;;10.00;6.07;;;1.90;73.40;;;;;;4983169;28;20027;-67
2020/12/28 05:32:15;;;;;;;9.07;5.30;;;1.90;73.40;;;;;;4983791;28;20548;-67
2020/12/28 05:34:44;;;;;;;10.85;6.10;;;1.90;73.20;;;;;;4982508;28;20066;-67
2020/12/28 05:37:14;;;;;;;9.38;5.95;;;1.90;73.30;;;;;;4982699;28;20061;-66
2020/12/28 05:39:41;;;;;;;10.82;5.95;;;1.90;73.30;;;;;;4982792;28;20096;-67
2020/12/28 05:42:12;;;;;;;8.48;5.25;;;2.00;73.10;;;;;;4982165;28;20054;-67
2020/12/28 05:44:43;;;;;;;8.48;5.00;;;2.00;73.40;;;;;;4982100;28;20068;-67
2020/12/28 05:47:14;;;;;;;7.20;4.70;;;2.00;73.70;;;;;;4981508;28;20034;-66
2020/12/28 05:49:44;;;;;;;8.77;5.20;;;2.00;73.60;;;;;;4982054;28;20126;-67
2020/12/28 05:52:11;;;;;;;8.75;5.03;;;2.00;73.80;;;;;;4983129;28;20145;-67
2020/12/28 05:54:38;;;;;;;6.72;5.03;;;2.10;73.60;;;;;;4980835;28;20652;-67
2020/12/28 05:57:07;;;;;;;12.35;7.03;;;2.10;73.60;;;;;;4982235;28;20046;-67
2020/12/28 05:59:34;;;;;;;9.60;5.85;;;2.10;73.70;;;;;;4980515;28;20537;-67
2020/12/28 06:02:01;;;;;;;9.05;6.35;;;2.10;74.00;;;;;;4980597;28;20606;-67
2020/12/28 06:04:27;;;;;;;10.35;6.15;;;2.10;74.30;;;;;;4979789;28;20031;-66
2020/12/28 06:07:00;;;;;;;8.68;5.70;;;2.10;74.30;;;;;;4982414;28;20529;-65
2020/12/28 06:09:27;;;;;;;9.98;6.45;;;2.10;74.30;;;;;;4982327;28;20061;-67
2020/12/28 06:12:03;;;;;;;8.20;5.65;;;2.10;74.10;;;;;;4981911;28;20481;-67
2020/12/28 06:14:33;;;;;;;11.02;6.97;;;2.10;74.30;;;;;;4981634;28;20038;-66
2020/12/28 06:17:10;;;;;;;11.57;7.00;;;2.10;74.50;;;;;;4981590;28;20514;-66
2020/12/28 06:19:37;;;;;;;9.05;6.15;;;2.10;74.50;;;;;;4982178;28;20046;-67
2020/12/28 06:22:03;;;;;;;9.10;5.93;;;2.00;74.40;;;;;;4981545;28;20042;-67
2020/12/28 06:24:30;;;;;;;8.95;5.70;;;2.00;74.60;;;;;;4981111;28;20084;-66
2020/12/28 06:27:06;;;;;;;10.63;6.22;;;2.00;74.50;;;;;;4979801;28;20030;-67
2020/12/28 06:29:33;;;;;;;9.20;6.10;;;2.00;74.60;;;;;;4981498;28;20421;-67
2020/12/28 06:32:13;;;;;;;11.48;6.35;;;2.00;74.30;;;;;;4982059;28;20121;-67
2020/12/28 06:34:40;;;;;;;10.40;5.88;;;2.10;74.60;;;;;;4980509;28;20096;-67
2020/12/28 06:37:05;;;;;;;10.02;6.28;;;2.00;74.10;;;;;;4982019;28;20030;-67
2020/12/28 06:39:31;;;;;;;8.32;5.20;;;2.10;74.30;;;;;;4980889;28;20103;-67
2020/12/28 06:42:14;;;;;;;7.60;5.28;;;2.10;74.40;;;;;;4980255;28;20045;-66
2020/12/28 06:44:41;;;;;;;8.55;5.70;;;2.10;74.70;;;;;;4981599;28;22378;-67
2020/12/28 06:47:24;;;;;;;8.27;5.07;;;2.10;74.50;;;;;;4981952;28;20101;-67
2020/12/28 06:49:51;;;;;;;7.03;4.95;;;2.10;74.70;;;;;;4980738;28;20121;-67
2020/12/28 06:52:17;;;;;;;9.02;4.82;;;2.10;74.20;;;;;;4981291;28;20065;-67
2020/12/28 06:54:44;;;;;;;11.27;5.95;;;2.10;74.10;;;;;;4980820;28;20936;-66
2020/12/28 06:57:10;;;;;;;15.02;7.55;;;2.10;74.10;;;;;;4981353;28;20457;-66
2020/12/28 06:59:38;;;;;;;16.98;7.70;;;2.10;74.30;;;;;;4981326;28;20034;-65
2020/12/28 07:02:04;;;;;;;11.70;6.35;;;2.20;74.30;;;;;;4981380;28;20116;-67
2020/12/28 07:04:37;;;;;;;9.65;6.03;;;2.20;74.10;;;;;;4980239;28;20061;-67
2020/12/28 07:07:07;;;;;;;9.75;6.57;;;2.10;74.10;;;;;;4981592;28;20042;-66
2020/12/28 07:09:33;;;;;;;10.70;6.00;;;2.10;74.00;;;;;;4980709;28;20034;-67
2020/12/28 07:12:10;;;;;;;8.63;5.50;;;2.10;73.90;;;;;;4979472;28;20098;-67
2020/12/28 07:14:36;;;;;;;8.98;5.90;;;2.10;74.30;;;;;;4979155;28;20122;-67
2020/12/28 07:17:02;;;;;;;8.95;5.70;;;2.10;74.10;;;;;;4971763;28;20113;-66
2020/12/28 07:19:28;;;;;;;8.82;6.07;;;2.00;74.10;;;;;;4981124;28;20118;-67
2020/12/28 07:21:54;;;;;;;9.25;6.15;;;2.10;74.30;;;;;;4981588;28;20433;-66
2020/12/28 07:24:20;;;;;;;9.73;6.38;;;2.00;74.50;;;;;;4958483;28;20081;-67
2020/12/28 07:26:47;;;;;;;9.20;6.18;;;2.00;74.30;;;;;;4978300;28;20445;-67
2020/12/28 07:29:14;;;;;;;10.52;6.40;;;2.00;74.30;;;;;;4974545;28;20125;-67
2020/12/28 07:31:40;;;;;;;9.32;6.18;;;2.00;74.50;;;;;;4990874;28;20125;-67
2020/12/28 07:34:06;;;;;;;9.63;5.95;;;2.00;74.50;;;;;;4977430;28;20026;-66
2020/12/28 07:36:36;;;;;;;8.35;6.03;;;2.00;74.50;;;;;;4978358;28;20045;-66
2020/12/28 07:39:02;;;;;;;9.15;6.07;;;2.00;74.60;;;;;;4978165;28;20031;-66
2020/12/28 07:41:27;;;;;;;9.38;6.30;;;2.00;75.50;;;;;;4978690;28;20084;-67
2020/12/28 07:44:01;;;;;;;10.27;6.53;;;2.00;74.80;;;;;;4979906;28;20502;-66
2020/12/28 07:46:33;;;;;;;10.25;6.55;;;2.00;75.00;;;;;;4978326;28;20048;-67
2020/12/28 07:49:19;;;;;;;12.27;7.70;;;2.00;75.00;;;;;;4978004;28;20494;-66
2020/12/28 07:51:50;;;;;;;11.20;7.40;;;2.10;75.30;;;;;;4978100;28;20506;-67
2020/12/28 07:54:25;;;;;;;9.85;5.97;;;2.10;74.80;;;;;;4979015;28;20057;-66
2020/12/28 07:56:56;;;;;;;7.93;5.70;;;2.10;75.00;;;;;;4992987;28;20030;-67
2020/12/28 07:59:48;;;;;;;9.73;6.00;;;2.10;74.90;;;;;;4978619;28;20035;-66
2020/12/28 08:02:47;;;;;;;10.85;6.10;;;2.10;75.30;;;;;;4979255;28;20035;-67
2020/12/28 08:05:14;;;;;;;8.52;5.55;;;2.10;75.60;;;;;;4991664;28;20059;-67
2020/12/28 08:07:39;;;;;;;9.77;6.03;;;2.20;75.20;;;;;;4978598;28;20540;-66
2020/12/28 08:10:09;;;;;;;9.90;6.40;;;2.20;75.20;;;;;;4978456;28;20031;-66
2020/12/28 08:12:41;;;;;;;10.90;5.80;;;2.20;75.50;;;;;;4977423;28;20042;-66
2020/12/28 08:15:07;;;;;;;8.02;5.07;;;2.30;75.50;;;;;;4979200;28;20046;-67
2020/12/28 08:17:33;;;;;;;8.50;4.93;;;2.30;75.40;;;;;;4977767;28;20034;-67
2020/12/28 08:20:13;;;;;;;6.30;4.38;;;2.40;75.50;;;;;;4978895;28;20053;-66
2020/12/28 08:22:40;;;;;;;26.55;11.50;;;2.40;75.70;;;;;;4971563;28;20058;-66
2020/12/28 08:25:08;;;;;;;46.58;17.98;;;2.40;75.50;;;;;;4973860;28;20031;-66
2020/12/28 08:27:34;;;;;;;42.20;17.08;;;2.50;75.50;;;;;;4971303;28;20161;-66
2020/12/28 08:30:01;;;;;;;28.05;12.48;;;2.60;75.50;;;;;;4970723;28;20260;-65
2020/12/28 08:32:28;;;;;;;32.50;18.05;;;2.60;75.50;;;;;;4977958;28;20027;-66
2020/12/28 08:34:55;;;;;;;16.13;9.35;;;2.60;75.40;;;;;;4977501;28;20034;-66
2020/12/28 08:37:21;;;;;;;13.18;8.15;;;2.70;75.50;;;;;;4979310;28;20623;-67
2020/12/28 08:39:47;;;;;;;12.48;7.93;;;2.70;75.50;;;;;;4976489;28;20035;-66
2020/12/28 08:42:12;;;;;;;10.05;6.25;;;2.70;75.40;;;;;;4977320;28;20418;-65
2020/12/28 08:44:41;;;;;;;12.52;7.13;;;2.70;75.50;;;;;;4978724;28;20526;-66
2020/12/28 08:47:12;;;;;;;13.43;7.15;;;2.70;75.50;;;;;;4978623;28;20034;-66
2020/12/28 08:49:40;;;;;;;12.57;8.23;;;2.70;75.80;;;;;;4977437;28;20035;-67
2020/12/28 08:52:11;;;;;;;13.60;7.55;;;2.70;75.70;;;;;;4981262;28;20034;-66
2020/12/28 08:54:37;;;;;;;16.67;8.30;;;2.60;75.70;;;;;;4976723;28;20518;-66
2020/12/28 08:57:03;;;;;;;15.00;8.70;;;2.50;75.90;;;;;;4977545;28;20038;-66
2020/12/28 08:59:29;;;;;;;13.65;7.82;;;2.50;75.90;;;;;;4976892;28;20521;-66
2020/12/28 09:01:55;;;;;;;12.88;7.75;;;2.50;76.20;;;;;;4977856;28;20039;-66
2020/12/28 09:04:21;;;;;;;10.13;7.10;;;2.50;76.40;;;;;;4973797;28;20046;-66
2020/12/28 09:06:48;;;;;;;11.25;7.47;;;2.50;76.60;;;;;;4978528;28;20115;-66
2020/12/28 09:09:14;;;;;;;10.60;6.88;;;2.40;76.50;;;;;;4977169;28;20549;-66
2020/12/28 09:11:41;;;;;;;9.38;6.55;;;2.40;77.50;;;;;;4976202;28;20134;-66
2020/12/28 09:14:07;;;;;;;11.32;7.38;;;2.40;76.70;;;;;;4977443;28;20031;-66
2020/12/28 09:16:32;;;;;;;10.75;7.03;;;2.40;76.90;;;;;;4977255;28;20084;-67
2020/12/28 09:18:58;;;;;;;11.77;8.10;;;2.40;76.90;;;;;;4977894;28;20026;-67
2020/12/28 09:21:23;;;;;;;12.48;7.78;;;2.40;76.90;;;;;;4978050;28;20035;-66
2020/12/28 09:23:49;;;;;;;13.60;9.07;;;2.40;76.90;;;;;;4978677;28;20126;-66
2020/12/28 09:26:15;;;;;;;16.45;8.55;;;2.50;76.80;;;;;;4983065;28;20034;-66
2020/12/28 09:28:40;;;;;;;13.55;8.18;;;2.40;76.70;;;;;;4975556;28;20038;-66
2020/12/28 09:31:06;;;;;;;12.00;7.72;;;2.40;76.70;;;;;;4976611;28;20053;-66
2020/12/28 09:33:32;;;;;;;16.67;7.90;;;2.40;77.50;;;;;;4974374;28;20047;-66
2020/12/28 09:35:58;;;;;;;12.85;7.68;;;2.40;76.70;;;;;;4977555;28;20098;-66
2020/12/28 09:38:23;;;;;;;11.75;7.63;;;2.50;76.70;;;;;;4975633;28;20047;-66
2020/12/28 09:40:49;;;;;;;11.80;8.15;;;2.50;76.70;;;;;;4977309;28;20034;-66
2020/12/28 09:43:15;;;;;;;10.85;7.50;;;2.50;76.70;;;;;;4982119;28;20023;-66
2020/12/28 09:45:40;;;;;;;14.98;9.30;;;2.50;76.70;;;;;;4976438;28;20043;-66
2020/12/28 09:48:06;;;;;;;12.73;8.43;;;2.60;76.60;;;;;;4978053;28;20045;-66
2020/12/28 09:50:32;;;;;;;12.80;8.13;;;2.60;76.50;;;;;;4971408;28;20042;-66
2020/12/28 09:52:58;;;;;;;11.63;7.03;;;2.60;76.40;;;;;;4978211;28;20039;-66
2020/12/28 09:55:24;;;;;;;10.98;7.43;;;2.70;76.60;;;;;;4978153;28;20101;-66
2020/12/28 09:57:49;;;;;;;10.95;7.47;;;2.70;76.40;;;;;;4976207;28;20409;-63
2020/12/28 10:00:15;;;;;;;14.07;8.25;;;2.70;76.40;;;;;;4978700;28;20177;-65
2020/12/28 10:02:42;;;;;;;10.07;7.72;;;2.80;77.20;;;;;;4981863;28;20098;-65
2020/12/28 10:05:11;;;;;;;12.20;7.65;;;2.70;77.20;;;;;;4982649;28;20513;-66
2020/12/28 10:07:37;;;;;;;10.70;7.25;;;2.80;76.40;;;;;;4980428;28;20092;-64
2020/12/28 10:10:07;;;;;;;11.23;6.72;;;2.80;76.20;;;;;;4981966;28;20038;-66
2020/12/28 10:12:33;;;;;;;9.57;6.50;;;2.90;76.30;;;;;;4976648;28;20038;-65
2020/12/28 10:14:59;;;;;;;11.27;6.97;;;2.90;76.20;;;;;;4981432;28;20502;-65
2020/12/28 10:17:25;;;;;;;11.68;7.75;;;3.00;76.20;;;;;;4982067;28;20041;-66
2020/12/28 10:19:50;;;;;;;14.23;8.68;;;3.00;76.10;;;;;;4982237;28;20031;-65
2020/12/28 10:22:16;;;;;;;14.32;9.13;;;3.00;76.10;;;;;;4982810;28;20121;-65
2020/12/28 10:24:42;;;;;;;15.88;9.40;;;3.00;76.00;;;;;;4981086;28;20129;-65
2020/12/28 10:27:07;;;;;;;19.58;10.75;;;3.10;76.10;;;;;;4981972;28;20035;-66
2020/12/28 10:29:33;;;;;;;21.88;11.05;;;3.10;76.10;;;;;;4981882;28;20109;-65
2020/12/28 10:31:59;;;;;;;14.50;9.15;;;3.00;76.00;;;;;;4979962;28;20039;-65
2020/12/28 10:34:26;;;;;;;14.25;8.57;;;3.00;76.10;;;;;;4980685;28;20023;-66
2020/12/28 10:36:52;;;;;;;13.55;8.40;;;3.10;76.10;;;;;;4982338;28;20043;-65
2020/12/28 10:39:18;;;;;;;13.45;8.75;;;3.10;76.10;;;;;;4982810;28;20121;-65
2020/12/28 10:41:43;;;;;;;11.63;7.78;;;3.10;76.10;;;;;;4982603;28;20473;-66
2020/12/28 10:44:09;;;;;;;14.18;8.75;;;3.10;76.00;;;;;;4983064;28;20325;-66
2020/12/28 10:46:37;;;;;;;12.65;8.23;;;3.10;76.00;;;;;;4981618;28;20033;-66
2020/12/28 10:49:06;;;;;;;12.48;7.70;;;3.20;76.00;;;;;;4980632;28;20051;-65
2020/12/28 10:51:32;;;;;;;11.60;8.00;;;3.20;76.00;;;;;;4979814;28;20035;-66
2020/12/28 10:53:58;;;;;;;12.70;7.97;;;3.20;75.90;;;;;;4978225;28;20037;-65
2020/12/28 10:56:28;;;;;;;12.90;8.25;;;3.30;76.00;;;;;;4980067;28;20500;-65
2020/12/28 10:58:54;;;;;;;16.35;8.80;;;3.30;75.90;;;;;;4980357;28;20034;-65
2020/12/28 11:01:25;;;;;;;14.70;8.52;;;3.40;76.80;;;;;;4979331;28;20097;-65
2020/12/28 11:03:51;;;;;;;12.65;7.50;;;3.40;75.80;;;;;;4978645;28;20042;-67
2020/12/28 11:06:21;;;;;;;11.68;7.68;;;3.50;75.70;;;;;;4980294;28;20035;-64
2020/12/28 11:08:48;;;;;;;10.07;7.18;;;3.50;75.70;;;;;;4979402;28;20035;-65
2020/12/28 11:11:16;;;;;;;12.55;7.97;;;3.60;76.50;;;;;;4979374;28;20121;-65
2020/12/28 11:13:41;;;;;;;11.45;7.30;;;3.60;75.60;;;;;;4980381;28;20121;-65
2020/12/28 11:16:07;;;;;;;8.82;6.28;;;3.60;75.40;;;;;;4981035;28;20118;-65
2020/12/28 11:18:32;;;;;;;9.52;6.68;;;3.70;75.50;;;;;;4994008;28;20039;-65
2020/12/28 11:20:58;;;;;;;14.88;8.07;;;3.70;75.30;;;;;;4980137;28;20093;-65
2020/12/28 11:23:23;;;;;;;10.77;7.40;;;3.80;75.30;;;;;;4980770;28;20506;-66
2020/12/28 11:25:49;;;;;;;13.52;7.50;;;3.80;75.20;;;;;;4980184;28;20106;-66
2020/12/28 11:28:15;;;;;;;10.20;6.60;;;3.80;75.10;;;;;;4981240;28;20034;-66
2020/12/28 11:30:41;;;;;;;9.25;6.43;;;3.90;75.00;;;;;;4978938;28;20046;-66
2020/12/28 11:33:07;;;;;;;9.30;6.50;;;3.90;75.00;;;;;;4979799;28;20043;-66
2020/12/28 11:35:33;;;;;;;8.77;6.35;;;3.90;74.80;;;;;;4980334;28;20034;-66
2020/12/28 11:37:58;;;;;;;8.38;6.30;;;3.90;74.80;;;;;;4979343;28;20042;-66
2020/12/28 11:40:24;;;;;;;10.23;6.47;;;3.90;74.80;;;;;;4978397;28;20026;-66
2020/12/28 11:42:50;;;;;;;9.30;6.20;;;4.00;74.80;;;;;;4978504;28;20105;-66
2020/12/28 11:45:16;;;;;;;8.25;6.05;;;4.00;74.70;;;;;;4978881;28;20464;-65
2020/12/28 11:47:42;;;;;;;10.52;6.75;;;4.00;74.70;;;;;;4979050;28;20631;-65
2020/12/28 11:50:08;;;;;;;10.00;6.65;;;4.00;75.50;;;;;;4978499;28;20129;-66
2020/12/28 11:52:34;;;;;;;10.38;7.50;;;4.00;74.80;;;;;;4977818;28;20037;-66
2020/12/28 11:55:00;;;;;;;9.65;6.68;;;4.00;74.80;;;;;;4978385;28;20035;-66
2020/12/28 11:57:26;;;;;;;9.73;6.55;;;4.00;74.80;;;;;;4978362;28;20042;-66
2020/12/28 11:59:51;;;;;;;9.13;6.88;;;4.00;75.00;;;;;;4980467;28;20046;-66
2020/12/28 12:02:21;;;;;;;11.18;6.97;;;4.10;75.00;;;;;;4979575;28;20339;-66
2020/12/28 12:04:51;;;;;;;10.10;6.90;;;4.10;74.80;;;;;;4979767;28;20038;-66
2020/12/28 12:07:18;;;;;;;12.13;6.70;;;4.10;74.60;;;;;;4979753;28;20035;-65
2020/12/28 12:09:44;;;;;;;11.80;7.03;;;4.10;74.60;;;;;;4978904;28;20038;-66
2020/12/28 12:12:10;;;;;;;10.30;7.47;;;4.00;74.80;;;;;;4978628;28;20026;-66
2020/12/28 12:14:36;;;;;;;10.40;7.05;;;4.00;74.90;;;;;;4980043;28;20034;-66
2020/12/28 12:17:01;;;;;;;8.98;7.00;;;4.00;76.00;;;;;;4979937;28;20026;-66
2020/12/28 12:19:27;;;;;;;13.23;7.05;;;3.90;75.20;;;;;;4979460;28;20027;-66
2020/12/28 12:21:53;;;;;;;9.77;6.57;;;4.00;75.40;;;;;;4979489;28;20100;-66
2020/12/28 12:24:18;;;;;;;11.80;6.85;;;3.90;75.40;;;;;;4977801;28;20042;-66
2020/12/28 12:26:44;;;;;;;9.65;6.63;;;3.90;75.50;;;;;;4979127;28;20371;-66
2020/12/28 12:29:09;;;;;;;9.15;6.93;;;3.90;75.50;;;;;;4979804;28;20050;-66
2020/12/28 12:31:35;;;;;;;13.00;9.23;;;3.90;75.50;;;;;;4980170;28;20040;-66
2020/12/28 12:34:01;;;;;;;11.52;6.95;;;3.90;75.60;;;;;;4979336;28;20038;-66
2020/12/28 12:36:26;;;;;;;9.93;7.00;;;4.00;75.70;;;;;;4979048;28;20089;-66
2020/12/28 12:38:52;;;;;;;10.93;6.80;;;4.00;75.90;;;;;;4979101;28;21517;-65
2020/12/28 12:41:20;;;;;;;10.93;6.63;;;4.00;76.00;;;;;;4979349;28;20505;-66
2020/12/28 12:43:46;;;;;;;11.48;6.75;;;4.00;76.10;;;;;;4979144;28;20128;-66
2020/12/28 12:46:12;;;;;;;12.13;6.88;;;4.00;76.00;;;;;;4979625;28;20057;-66
2020/12/28 12:48:42;;;;;;;12.70;8.13;;;4.00;76.10;;;;;;4978449;28;20035;-66